sensor_id;sensor_type;location;lat;lon;timestamp;P1;durP1;ratioP1;P2;durP2;ratioP2
23181;SDS011;11759;51.282;6.642;2023-12-14T00:01:31;149.65;;;41.47;;
23181;SDS011;11759;51.282;6.642;2023-12-14T00:03:58;156.48;;;41.13;;
23181;SDS011;11759;51.282;6.642;2023-12-14T00:06:24;160.75;;;41.80;;
23181;SDS011;11759;51.282;6.642;2023-12-14T00:08:51;169.82;;;44.17;;
23181;SDS011;11759;51.282;6.642;2023-12-14T00:11:17;164.60;;;44.38;;
23181;SDS011;11759;51.282;6.642;2023-12-14T00:13:44;151.52;;;41.35;;
23181;SDS011;11759;51.282;6.642;2023-12-14T00:16:10;144.32;;;40.45;;
23181;SDS011;11759;51.282;6.642;2023-12-14T00:18:37;147.48;;;39.83;;
23181;SDS011;11759;51.282;6.642;2023-12-14T00:21:04;163.75;;;41.35;;
23181;SDS011;11759;51.282;6.642;2023-12-14T00:23:31;144.73;;;35.88;;
23181;SDS011;11759;51.282;6.642;2023-12-14T00:25:57;134.98;;;36.22;;
23181;SDS011;11759;51.282;6.642;2023-12-14T00:28:24;134.38;;;34.50;;
23181;SDS011;11759;51.282;6.642;2023-12-14T00:30:56;135.10;;;31.80;;
23181;SDS011;11759;51.282;6.642;2023-12-14T00:33:22;128.90;;;31.65;;
23181;SDS011;11759;51.282;6.642;2023-12-14T00:35:49;133.23;;;33.10;;
23181;SDS011;11759;51.282;6.642;2023-12-14T00:38:16;143.60;;;32.92;;
23181;SDS011;11759;51.282;6.642;2023-12-14T00:40:42;119.80;;;28.90;;
23181;SDS011;11759;51.282;6.642;2023-12-14T00:43:09;126.43;;;30.45;;
23181;SDS011;11759;51.282;6.642;2023-12-14T00:45:36;122.82;;;30.92;;
23181;SDS011;11759;51.282;6.642;2023-12-14T00:48:02;126.75;;;30.17;;
23181;SDS011;11759;51.282;6.642;2023-12-14T00:50:29;124.60;;;30.65;;
23181;SDS011;11759;51.282;6.642;2023-12-14T00:52:56;117.80;;;28.60;;
23181;SDS011;11759;51.282;6.642;2023-12-14T00:55:22;97.10;;;27.13;;
23181;SDS011;11759;51.282;6.642;2023-12-14T00:57:49;104.13;;;27.02;;
23181;SDS011;11759;51.282;6.642;2023-12-14T01:00:16;83.25;;;24.48;;
23181;SDS011;11759;51.282;6.642;2023-12-14T01:02:42;93.80;;;26.40;;
23181;SDS011;11759;51.282;6.642;2023-12-14T01:05:09;85.22;;;25.50;;
23181;SDS011;11759;51.282;6.642;2023-12-14T01:07:36;88.90;;;24.88;;
23181;SDS011;11759;51.282;6.642;2023-12-14T01:10:02;81.78;;;23.67;;
23181;SDS011;11759;51.282;6.642;2023-12-14T01:12:29;80.68;;;23.33;;
23181;SDS011;11759;51.282;6.642;2023-12-14T01:14:56;76.68;;;22.23;;
23181;SDS011;11759;51.282;6.642;2023-12-14T01:17:23;67.70;;;21.95;;
23181;SDS011;11759;51.282;6.642;2023-12-14T01:19:49;66.75;;;22.08;;
23181;SDS011;11759;51.282;6.642;2023-12-14T01:22:16;79.90;;;22.45;;
23181;SDS011;11759;51.282;6.642;2023-12-14T01:24:43;71.95;;;21.98;;
23181;SDS011;11759;51.282;6.642;2023-12-14T01:27:09;66.82;;;21.58;;
23181;SDS011;11759;51.282;6.642;2023-12-14T01:29:36;85.50;;;23.80;;
23181;SDS011;11759;51.282;6.642;2023-12-14T01:32:03;94.93;;;26.30;;
23181;SDS011;11759;51.282;6.642;2023-12-14T01:34:30;77.05;;;24.25;;
23181;SDS011;11759;51.282;6.642;2023-12-14T01:36:57;87.43;;;24.02;;
23181;SDS011;11759;51.282;6.642;2023-12-14T01:39:23;78.72;;;23.45;;
23181;SDS011;11759;51.282;6.642;2023-12-14T01:41:50;80.65;;;22.27;;
23181;SDS011;11759;51.282;6.642;2023-12-14T01:44:16;97.95;;;23.15;;
23181;SDS011;11759;51.282;6.642;2023-12-14T01:46:43;88.93;;;23.70;;
23181;SDS011;11759;51.282;6.642;2023-12-14T01:49:09;78.10;;;22.33;;
23181;SDS011;11759;51.282;6.642;2023-12-14T01:51:36;82.68;;;23.25;;
23181;SDS011;11759;51.282;6.642;2023-12-14T01:54:02;78.05;;;21.95;;
23181;SDS011;11759;51.282;6.642;2023-12-14T01:56:29;82.45;;;24.15;;
23181;SDS011;11759;51.282;6.642;2023-12-14T01:58:55;81.63;;;22.52;;
23181;SDS011;11759;51.282;6.642;2023-12-14T02:03:54;66.72;;;21.30;;
23181;SDS011;11759;51.282;6.642;2023-12-14T02:06:21;90.35;;;25.58;;
23181;SDS011;11759;51.282;6.642;2023-12-14T02:08:48;78.63;;;23.50;;
23181;SDS011;11759;51.282;6.642;2023-12-14T02:11:14;89.70;;;24.88;;
23181;SDS011;11759;51.282;6.642;2023-12-14T02:13:41;87.80;;;25.63;;
23181;SDS011;11759;51.282;6.642;2023-12-14T02:16:08;88.97;;;23.73;;
23181;SDS011;11759;51.282;6.642;2023-12-14T02:18:35;85.43;;;23.77;;
23181;SDS011;11759;51.282;6.642;2023-12-14T02:21:02;78.95;;;25.83;;
23181;SDS011;11759;51.282;6.642;2023-12-14T02:23:28;118.57;;;28.40;;
23181;SDS011;11759;51.282;6.642;2023-12-14T02:25:56;105.90;;;27.38;;
23181;SDS011;11759;51.282;6.642;2023-12-14T02:28:22;107.63;;;28.27;;
23181;SDS011;11759;51.282;6.642;2023-12-14T02:30:49;108.40;;;27.45;;
23181;SDS011;11759;51.282;6.642;2023-12-14T02:33:15;100.93;;;27.25;;
23181;SDS011;11759;51.282;6.642;2023-12-14T02:35:42;100.30;;;29.25;;
23181;SDS011;11759;51.282;6.642;2023-12-14T02:38:09;125.93;;;30.00;;
23181;SDS011;11759;51.282;6.642;2023-12-14T02:40:36;103.13;;;28.88;;
23181;SDS011;11759;51.282;6.642;2023-12-14T02:43:02;100.03;;;28.13;;
23181;SDS011;11759;51.282;6.642;2023-12-14T02:45:29;103.70;;;30.70;;
23181;SDS011;11759;51.282;6.642;2023-12-14T02:47:56;95.10;;;27.58;;
23181;SDS011;11759;51.282;6.642;2023-12-14T02:50:22;92.72;;;27.65;;
23181;SDS011;11759;51.282;6.642;2023-12-14T02:52:49;96.05;;;27.85;;
23181;SDS011;11759;51.282;6.642;2023-12-14T02:55:15;109.38;;;29.38;;
23181;SDS011;11759;51.282;6.642;2023-12-14T02:57:42;122.10;;;32.28;;
23181;SDS011;11759;51.282;6.642;2023-12-14T03:00:08;125.28;;;31.40;;
23181;SDS011;11759;51.282;6.642;2023-12-14T03:02:36;123.75;;;31.83;;
23181;SDS011;11759;51.282;6.642;2023-12-14T03:05:03;120.85;;;32.25;;
23181;SDS011;11759;51.282;6.642;2023-12-14T03:07:31;123.97;;;32.85;;
23181;SDS011;11759;51.282;6.642;2023-12-14T03:09:58;114.35;;;30.30;;
23181;SDS011;11759;51.282;6.642;2023-12-14T03:12:25;116.45;;;29.92;;
23181;SDS011;11759;51.282;6.642;2023-12-14T03:14:51;123.07;;;31.15;;
23181;SDS011;11759;51.282;6.642;2023-12-14T03:17:18;98.97;;;26.85;;
23181;SDS011;11759;51.282;6.642;2023-12-14T03:19:44;79.13;;;24.50;;
23181;SDS011;11759;51.282;6.642;2023-12-14T03:22:11;74.88;;;23.48;;
23181;SDS011;11759;51.282;6.642;2023-12-14T03:24:38;92.43;;;26.75;;
23181;SDS011;11759;51.282;6.642;2023-12-14T03:27:05;82.50;;;23.58;;
23181;SDS011;11759;51.282;6.642;2023-12-14T03:29:31;67.55;;;22.13;;
23181;SDS011;11759;51.282;6.642;2023-12-14T03:31:58;78.53;;;23.58;;
23181;SDS011;11759;51.282;6.642;2023-12-14T03:34:25;77.78;;;23.23;;
23181;SDS011;11759;51.282;6.642;2023-12-14T03:36:51;95.28;;;26.83;;
23181;SDS011;11759;51.282;6.642;2023-12-14T03:39:18;76.57;;;22.92;;
23181;SDS011;11759;51.282;6.642;2023-12-14T03:41:45;86.30;;;26.77;;
23181;SDS011;11759;51.282;6.642;2023-12-14T03:44:12;86.35;;;27.33;;
23181;SDS011;11759;51.282;6.642;2023-12-14T03:46:38;87.93;;;25.10;;
23181;SDS011;11759;51.282;6.642;2023-12-14T03:49:05;91.20;;;27.63;;
23181;SDS011;11759;51.282;6.642;2023-12-14T03:51:32;105.45;;;28.23;;
23181;SDS011;11759;51.282;6.642;2023-12-14T03:53:58;89.82;;;25.73;;
23181;SDS011;11759;51.282;6.642;2023-12-14T03:56:25;105.45;;;28.17;;
23181;SDS011;11759;51.282;6.642;2023-12-14T03:58:52;99.85;;;29.98;;
23181;SDS011;11759;51.282;6.642;2023-12-14T04:01:19;96.57;;;28.42;;
23181;SDS011;11759;51.282;6.642;2023-12-14T04:03:46;92.47;;;27.33;;
23181;SDS011;11759;51.282;6.642;2023-12-14T04:06:12;91.75;;;27.73;;
23181;SDS011;11759;51.282;6.642;2023-12-14T04:08:40;88.00;;;28.50;;
23181;SDS011;11759;51.282;6.642;2023-12-14T04:11:07;97.32;;;27.20;;
23181;SDS011;11759;51.282;6.642;2023-12-14T04:13:34;92.68;;;26.88;;
23181;SDS011;11759;51.282;6.642;2023-12-14T04:16:01;93.47;;;28.33;;
23181;SDS011;11759;51.282;6.642;2023-12-14T04:18:27;104.22;;;28.45;;
23181;SDS011;11759;51.282;6.642;2023-12-14T04:20:54;106.25;;;30.35;;
23181;SDS011;11759;51.282;6.642;2023-12-14T04:23:21;106.53;;;29.73;;
23181;SDS011;11759;51.282;6.642;2023-12-14T04:25:48;142.75;;;33.25;;
23181;SDS011;11759;51.282;6.642;2023-12-14T04:28:14;135.32;;;32.28;;
23181;SDS011;11759;51.282;6.642;2023-12-14T04:30:41;134.90;;;32.30;;
23181;SDS011;11759;51.282;6.642;2023-12-14T04:33:08;140.98;;;33.92;;
23181;SDS011;11759;51.282;6.642;2023-12-14T04:35:34;129.25;;;32.25;;
23181;SDS011;11759;51.282;6.642;2023-12-14T04:38:03;143.50;;;33.20;;
23181;SDS011;11759;51.282;6.642;2023-12-14T04:40:29;158.77;;;35.40;;
23181;SDS011;11759;51.282;6.642;2023-12-14T04:42:57;129.60;;;34.08;;
23181;SDS011;11759;51.282;6.642;2023-12-14T04:45:23;130.32;;;30.90;;
23181;SDS011;11759;51.282;6.642;2023-12-14T04:47:50;127.38;;;31.60;;
23181;SDS011;11759;51.282;6.642;2023-12-14T04:50:16;132.80;;;32.05;;
23181;SDS011;11759;51.282;6.642;2023-12-14T04:52:43;124.93;;;31.63;;
23181;SDS011;11759;51.282;6.642;2023-12-14T04:55:10;129.77;;;31.20;;
23181;SDS011;11759;51.282;6.642;2023-12-14T04:57:36;139.30;;;31.63;;
23181;SDS011;11759;51.282;6.642;2023-12-14T05:00:04;121.63;;;30.35;;
23181;SDS011;11759;51.282;6.642;2023-12-14T05:02:32;116.03;;;29.02;;
23181;SDS011;11759;51.282;6.642;2023-12-14T05:04:59;123.93;;;31.13;;
23181;SDS011;11759;51.282;6.642;2023-12-14T05:07:26;116.95;;;29.98;;
23181;SDS011;11759;51.282;6.642;2023-12-14T05:09:52;120.13;;;31.08;;
23181;SDS011;11759;51.282;6.642;2023-12-14T05:12:19;122.78;;;31.73;;
23181;SDS011;11759;51.282;6.642;2023-12-14T05:14:45;144.60;;;30.08;;
23181;SDS011;11759;51.282;6.642;2023-12-14T05:17:12;123.90;;;30.42;;
23181;SDS011;11759;51.282;6.642;2023-12-14T05:19:39;127.30;;;30.60;;
23181;SDS011;11759;51.282;6.642;2023-12-14T05:22:05;127.72;;;29.73;;
23181;SDS011;11759;51.282;6.642;2023-12-14T05:24:32;126.65;;;30.27;;
23181;SDS011;11759;51.282;6.642;2023-12-14T05:26:59;115.28;;;30.70;;
23181;SDS011;11759;51.282;6.642;2023-12-14T05:29:25;113.93;;;27.67;;
23181;SDS011;11759;51.282;6.642;2023-12-14T05:31:52;107.78;;;27.35;;
23181;SDS011;11759;51.282;6.642;2023-12-14T05:34:19;105.93;;;28.02;;
23181;SDS011;11759;51.282;6.642;2023-12-14T05:36:45;110.18;;;28.27;;
23181;SDS011;11759;51.282;6.642;2023-12-14T05:39:12;103.63;;;26.10;;
23181;SDS011;11759;51.282;6.642;2023-12-14T05:41:39;98.70;;;25.23;;
23181;SDS011;11759;51.282;6.642;2023-12-14T05:44:07;101.78;;;25.73;;
23181;SDS011;11759;51.282;6.642;2023-12-14T05:46:33;101.22;;;27.58;;
23181;SDS011;11759;51.282;6.642;2023-12-14T05:49:00;94.22;;;25.90;;
23181;SDS011;11759;51.282;6.642;2023-12-14T05:51:27;104.88;;;25.83;;
23181;SDS011;11759;51.282;6.642;2023-12-14T05:53:54;113.00;;;29.00;;
23181;SDS011;11759;51.282;6.642;2023-12-14T05:56:20;116.47;;;29.00;;
23181;SDS011;11759;51.282;6.642;2023-12-14T05:58:47;122.65;;;29.13;;
23181;SDS011;11759;51.282;6.642;2023-12-14T06:01:18;117.68;;;30.67;;
23181;SDS011;11759;51.282;6.642;2023-12-14T06:03:45;109.50;;;29.47;;
23181;SDS011;11759;51.282;6.642;2023-12-14T06:06:12;113.82;;;29.73;;
23181;SDS011;11759;51.282;6.642;2023-12-14T06:08:39;108.32;;;28.88;;
23181;SDS011;11759;51.282;6.642;2023-12-14T06:11:06;104.80;;;27.45;;
23181;SDS011;11759;51.282;6.642;2023-12-14T06:13:33;111.95;;;28.38;;
23181;SDS011;11759;51.282;6.642;2023-12-14T06:16:00;111.93;;;29.08;;
23181;SDS011;11759;51.282;6.642;2023-12-14T06:18:27;103.00;;;27.70;;
23181;SDS011;11759;51.282;6.642;2023-12-14T06:20:54;101.07;;;29.60;;
23181;SDS011;11759;51.282;6.642;2023-12-14T06:23:20;109.60;;;27.67;;
23181;SDS011;11759;51.282;6.642;2023-12-14T06:25:48;108.28;;;28.75;;
23181;SDS011;11759;51.282;6.642;2023-12-14T06:28:14;105.05;;;25.65;;
23181;SDS011;11759;51.282;6.642;2023-12-14T06:30:41;114.53;;;27.35;;
23181;SDS011;11759;51.282;6.642;2023-12-14T06:33:07;95.72;;;24.83;;
23181;SDS011;11759;51.282;6.642;2023-12-14T06:35:34;100.45;;;25.30;;
23181;SDS011;11759;51.282;6.642;2023-12-14T06:38:01;91.45;;;24.42;;
23181;SDS011;11759;51.282;6.642;2023-12-14T06:40:27;97.82;;;26.90;;
23181;SDS011;11759;51.282;6.642;2023-12-14T06:42:54;87.35;;;24.08;;
23181;SDS011;11759;51.282;6.642;2023-12-14T06:45:20;80.10;;;24.65;;
23181;SDS011;11759;51.282;6.642;2023-12-14T06:47:47;94.88;;;24.50;;
23181;SDS011;11759;51.282;6.642;2023-12-14T06:50:14;88.82;;;24.25;;
23181;SDS011;11759;51.282;6.642;2023-12-14T06:52:40;91.00;;;24.08;;
23181;SDS011;11759;51.282;6.642;2023-12-14T06:55:07;84.75;;;24.33;;
23181;SDS011;11759;51.282;6.642;2023-12-14T06:57:34;79.53;;;23.95;;
23181;SDS011;11759;51.282;6.642;2023-12-14T07:00:00;88.35;;;24.98;;
23181;SDS011;11759;51.282;6.642;2023-12-14T07:02:27;95.07;;;25.27;;
23181;SDS011;11759;51.282;6.642;2023-12-14T07:04:53;87.72;;;23.75;;
23181;SDS011;11759;51.282;6.642;2023-12-14T07:07:20;91.53;;;25.27;;
23181;SDS011;11759;51.282;6.642;2023-12-14T07:09:47;104.32;;;25.30;;
23181;SDS011;11759;51.282;6.642;2023-12-14T07:12:13;100.47;;;25.65;;
23181;SDS011;11759;51.282;6.642;2023-12-14T07:14:40;103.03;;;27.50;;
23181;SDS011;11759;51.282;6.642;2023-12-14T07:17:07;96.90;;;27.35;;
23181;SDS011;11759;51.282;6.642;2023-12-14T07:19:33;92.32;;;23.90;;
23181;SDS011;11759;51.282;6.642;2023-12-14T07:22:01;93.10;;;25.38;;
23181;SDS011;11759;51.282;6.642;2023-12-14T07:24:28;87.93;;;23.48;;
23181;SDS011;11759;51.282;6.642;2023-12-14T07:27:00;89.63;;;25.23;;
23181;SDS011;11759;51.282;6.642;2023-12-14T07:29:26;76.93;;;23.92;;
23181;SDS011;11759;51.282;6.642;2023-12-14T07:31:53;95.78;;;26.55;;
23181;SDS011;11759;51.282;6.642;2023-12-14T07:34:20;102.18;;;27.77;;
23181;SDS011;11759;51.282;6.642;2023-12-14T07:36:47;98.13;;;28.42;;
23181;SDS011;11759;51.282;6.642;2023-12-14T07:39:14;107.05;;;30.40;;
23181;SDS011;11759;51.282;6.642;2023-12-14T07:41:40;125.75;;;30.45;;
23181;SDS011;11759;51.282;6.642;2023-12-14T07:44:07;114.57;;;29.45;;
23181;SDS011;11759;51.282;6.642;2023-12-14T07:46:33;118.72;;;30.70;;
23181;SDS011;11759;51.282;6.642;2023-12-14T07:49:01;118.28;;;32.47;;
23181;SDS011;11759;51.282;6.642;2023-12-14T07:51:28;117.97;;;30.40;;
23181;SDS011;11759;51.282;6.642;2023-12-14T07:53:54;98.10;;;28.25;;
23181;SDS011;11759;51.282;6.642;2023-12-14T07:56:21;97.53;;;29.00;;
23181;SDS011;11759;51.282;6.642;2023-12-14T07:58:51;96.60;;;27.77;;
23181;SDS011;11759;51.282;6.642;2023-12-14T08:01:18;102.30;;;26.80;;
23181;SDS011;11759;51.282;6.642;2023-12-14T08:03:45;85.53;;;26.02;;
23181;SDS011;11759;51.282;6.642;2023-12-14T08:06:12;93.70;;;26.35;;
23181;SDS011;11759;51.282;6.642;2023-12-14T08:08:41;94.60;;;27.38;;
23181;SDS011;11759;51.282;6.642;2023-12-14T08:11:08;83.40;;;23.23;;
23181;SDS011;11759;51.282;6.642;2023-12-14T08:13:35;91.55;;;26.00;;
23181;SDS011;11759;51.282;6.642;2023-12-14T08:16:04;83.05;;;24.90;;
23181;SDS011;11759;51.282;6.642;2023-12-14T08:18:30;96.00;;;25.65;;
23181;SDS011;11759;51.282;6.642;2023-12-14T08:20:57;87.28;;;26.00;;
23181;SDS011;11759;51.282;6.642;2023-12-14T08:23:24;94.43;;;28.92;;
23181;SDS011;11759;51.282;6.642;2023-12-14T08:25:53;91.72;;;28.85;;
23181;SDS011;11759;51.282;6.642;2023-12-14T08:28:23;95.22;;;27.27;;
23181;SDS011;11759;51.282;6.642;2023-12-14T08:30:50;103.78;;;27.90;;
23181;SDS011;11759;51.282;6.642;2023-12-14T08:33:17;91.50;;;25.40;;
23181;SDS011;11759;51.282;6.642;2023-12-14T08:35:44;96.75;;;29.35;;
23181;SDS011;11759;51.282;6.642;2023-12-14T08:38:10;105.05;;;29.40;;
23181;SDS011;11759;51.282;6.642;2023-12-14T08:40:37;96.15;;;27.58;;
23181;SDS011;11759;51.282;6.642;2023-12-14T08:43:05;92.03;;;28.27;;
23181;SDS011;11759;51.282;6.642;2023-12-14T08:45:31;98.45;;;27.65;;
23181;SDS011;11759;51.282;6.642;2023-12-14T08:47:58;87.45;;;27.05;;
23181;SDS011;11759;51.282;6.642;2023-12-14T08:50:25;100.65;;;27.55;;
23181;SDS011;11759;51.282;6.642;2023-12-14T08:52:54;86.15;;;26.48;;
23181;SDS011;11759;51.282;6.642;2023-12-14T08:55:21;80.03;;;26.77;;
23181;SDS011;11759;51.282;6.642;2023-12-14T08:57:48;90.75;;;25.52;;
23181;SDS011;11759;51.282;6.642;2023-12-14T09:00:14;77.53;;;24.77;;
23181;SDS011;11759;51.282;6.642;2023-12-14T09:02:42;82.97;;;24.90;;
23181;SDS011;11759;51.282;6.642;2023-12-14T09:05:10;78.90;;;25.23;;
23181;SDS011;11759;51.282;6.642;2023-12-14T09:07:42;83.03;;;27.35;;
23181;SDS011;11759;51.282;6.642;2023-12-14T09:10:09;73.75;;;25.30;;
23181;SDS011;11759;51.282;6.642;2023-12-14T09:12:36;79.72;;;24.80;;
23181;SDS011;11759;51.282;6.642;2023-12-14T09:15:03;82.40;;;24.30;;
23181;SDS011;11759;51.282;6.642;2023-12-14T09:17:30;82.18;;;25.30;;
23181;SDS011;11759;51.282;6.642;2023-12-14T09:20:03;78.63;;;25.30;;
23181;SDS011;11759;51.282;6.642;2023-12-14T09:22:33;73.30;;;24.67;;
23181;SDS011;11759;51.282;6.642;2023-12-14T09:24:59;79.68;;;26.65;;
23181;SDS011;11759;51.282;6.642;2023-12-14T09:27:26;81.72;;;25.92;;
23181;SDS011;11759;51.282;6.642;2023-12-14T09:29:53;72.55;;;25.13;;
23181;SDS011;11759;51.282;6.642;2023-12-14T09:32:19;70.78;;;24.38;;
23181;SDS011;11759;51.282;6.642;2023-12-14T09:34:46;70.53;;;24.35;;
23181;SDS011;11759;51.282;6.642;2023-12-14T09:37:13;66.10;;;24.20;;
23181;SDS011;11759;51.282;6.642;2023-12-14T09:39:40;71.35;;;24.17;;
23181;SDS011;11759;51.282;6.642;2023-12-14T09:42:07;75.38;;;24.50;;
23181;SDS011;11759;51.282;6.642;2023-12-14T09:44:35;71.80;;;25.25;;
23181;SDS011;11759;51.282;6.642;2023-12-14T09:47:02;74.13;;;25.17;;
23181;SDS011;11759;51.282;6.642;2023-12-14T09:49:30;70.30;;;25.65;;
23181;SDS011;11759;51.282;6.642;2023-12-14T09:51:56;64.35;;;22.80;;
23181;SDS011;11759;51.282;6.642;2023-12-14T09:54:24;66.75;;;23.38;;
23181;SDS011;11759;51.282;6.642;2023-12-14T09:56:52;62.85;;;22.77;;
23181;SDS011;11759;51.282;6.642;2023-12-14T09:59:19;66.43;;;24.02;;
23181;SDS011;11759;51.282;6.642;2023-12-14T10:01:46;68.80;;;23.73;;
23181;SDS011;11759;51.282;6.642;2023-12-14T10:04:13;68.65;;;24.20;;
23181;SDS011;11759;51.282;6.642;2023-12-14T10:06:42;68.00;;;24.02;;
23181;SDS011;11759;51.282;6.642;2023-12-14T10:09:10;64.07;;;24.08;;
23181;SDS011;11759;51.282;6.642;2023-12-14T10:11:39;59.90;;;23.83;;
23181;SDS011;11759;51.282;6.642;2023-12-14T10:16:49;54.53;;;21.10;;
23181;SDS011;11759;51.282;6.642;2023-12-14T10:19:17;52.05;;;22.23;;
23181;SDS011;11759;51.282;6.642;2023-12-14T10:21:46;61.22;;;21.98;;
23181;SDS011;11759;51.282;6.642;2023-12-14T10:24:13;52.53;;;21.50;;
23181;SDS011;11759;51.282;6.642;2023-12-14T10:26:45;56.00;;;21.90;;
23181;SDS011;11759;51.282;6.642;2023-12-14T10:29:12;57.92;;;22.30;;
23181;SDS011;11759;51.282;6.642;2023-12-14T10:31:40;51.40;;;21.88;;
23181;SDS011;11759;51.282;6.642;2023-12-14T10:34:07;50.47;;;20.52;;
23181;SDS011;11759;51.282;6.642;2023-12-14T10:36:33;47.95;;;20.45;;
23181;SDS011;11759;51.282;6.642;2023-12-14T10:39:00;52.85;;;20.27;;
23181;SDS011;11759;51.282;6.642;2023-12-14T10:41:27;46.40;;;19.70;;
23181;SDS011;11759;51.282;6.642;2023-12-14T10:43:56;43.97;;;19.20;;
23181;SDS011;11759;51.282;6.642;2023-12-14T10:46:42;46.72;;;19.88;;
23181;SDS011;11759;51.282;6.642;2023-12-14T10:49:13;47.53;;;19.60;;
23181;SDS011;11759;51.282;6.642;2023-12-14T10:51:41;47.60;;;19.30;;
23181;SDS011;11759;51.282;6.642;2023-12-14T10:54:11;45.03;;;18.97;;
23181;SDS011;11759;51.282;6.642;2023-12-14T10:56:38;47.30;;;19.17;;
23181;SDS011;11759;51.282;6.642;2023-12-14T10:59:05;46.88;;;19.25;;
23181;SDS011;11759;51.282;6.642;2023-12-14T11:01:32;41.45;;;17.60;;
23181;SDS011;11759;51.282;6.642;2023-12-14T11:04:01;45.50;;;18.58;;
23181;SDS011;11759;51.282;6.642;2023-12-14T11:06:31;50.00;;;20.15;;
23181;SDS011;11759;51.282;6.642;2023-12-14T11:09:00;46.47;;;19.08;;
23181;SDS011;11759;51.282;6.642;2023-12-14T11:11:47;46.58;;;19.05;;
23181;SDS011;11759;51.282;6.642;2023-12-14T11:14:23;45.08;;;17.80;;
23181;SDS011;11759;51.282;6.642;2023-12-14T11:16:54;49.03;;;19.00;;
23181;SDS011;11759;51.282;6.642;2023-12-14T11:24:24;42.35;;;16.42;;
23181;SDS011;11759;51.282;6.642;2023-12-14T11:26:52;46.47;;;16.08;;
23181;SDS011;11759;51.282;6.642;2023-12-14T11:29:21;43.47;;;16.33;;
23181;SDS011;11759;51.282;6.642;2023-12-14T11:31:48;45.53;;;16.65;;
23181;SDS011;11759;51.282;6.642;2023-12-14T11:34:15;38.22;;;15.93;;
23181;SDS011;11759;51.282;6.642;2023-12-14T11:36:42;44.00;;;15.80;;
23181;SDS011;11759;51.282;6.642;2023-12-14T11:39:11;42.88;;;15.35;;
23181;SDS011;11759;51.282;6.642;2023-12-14T11:41:39;37.30;;;16.10;;
23181;SDS011;11759;51.282;6.642;2023-12-14T11:44:05;41.10;;;14.60;;
23181;SDS011;11759;51.282;6.642;2023-12-14T11:46:33;41.83;;;16.35;;
23181;SDS011;11759;51.282;6.642;2023-12-14T11:48:59;35.60;;;14.27;;
23181;SDS011;11759;51.282;6.642;2023-12-14T11:51:29;39.28;;;14.38;;
23181;SDS011;11759;51.282;6.642;2023-12-14T11:54:00;44.67;;;14.45;;
23181;SDS011;11759;51.282;6.642;2023-12-14T11:56:27;39.17;;;14.13;;
23181;SDS011;11759;51.282;6.642;2023-12-14T11:58:54;33.75;;;13.23;;
23181;SDS011;11759;51.282;6.642;2023-12-14T12:01:21;35.88;;;12.90;;
23181;SDS011;11759;51.282;6.642;2023-12-14T12:03:49;37.60;;;13.32;;
23181;SDS011;11759;51.282;6.642;2023-12-14T12:06:19;33.10;;;13.13;;
23181;SDS011;11759;51.282;6.642;2023-12-14T12:08:54;28.48;;;13.18;;
23181;SDS011;11759;51.282;6.642;2023-12-14T12:11:22;30.38;;;12.93;;
23181;SDS011;11759;51.282;6.642;2023-12-14T12:13:50;33.33;;;13.85;;
23181;SDS011;11759;51.282;6.642;2023-12-14T12:16:20;28.15;;;11.88;;
23181;SDS011;11759;51.282;6.642;2023-12-14T12:18:47;34.95;;;12.00;;
23181;SDS011;11759;51.282;6.642;2023-12-14T12:21:14;30.60;;;12.07;;
23181;SDS011;11759;51.282;6.642;2023-12-14T12:23:41;28.50;;;11.75;;
23181;SDS011;11759;51.282;6.642;2023-12-14T12:26:08;30.98;;;12.32;;
23181;SDS011;11759;51.282;6.642;2023-12-14T12:28:35;23.17;;;10.32;;
23181;SDS011;11759;51.282;6.642;2023-12-14T12:31:03;25.13;;;10.73;;
23181;SDS011;11759;51.282;6.642;2023-12-14T12:33:30;25.63;;;10.10;;
23181;SDS011;11759;51.282;6.642;2023-12-14T12:36:03;22.73;;;11.05;;
23181;SDS011;11759;51.282;6.642;2023-12-14T12:38:31;29.17;;;11.38;;
23181;SDS011;11759;51.282;6.642;2023-12-14T12:40:57;25.73;;;10.57;;
23181;SDS011;11759;51.282;6.642;2023-12-14T12:43:26;27.55;;;10.98;;
23181;SDS011;11759;51.282;6.642;2023-12-14T12:45:53;28.10;;;10.50;;
23181;SDS011;11759;51.282;6.642;2023-12-14T12:48:19;26.35;;;10.05;;
23181;SDS011;11759;51.282;6.642;2023-12-14T12:50:50;23.13;;;9.70;;
23181;SDS011;11759;51.282;6.642;2023-12-14T12:53:16;23.42;;;9.25;;
23181;SDS011;11759;51.282;6.642;2023-12-14T12:55:43;20.98;;;8.98;;
23181;SDS011;11759;51.282;6.642;2023-12-14T12:58:10;18.85;;;8.57;;
23181;SDS011;11759;51.282;6.642;2023-12-14T13:00:37;21.70;;;9.25;;
23181;SDS011;11759;51.282;6.642;2023-12-14T13:03:04;21.45;;;9.50;;
23181;SDS011;11759;51.282;6.642;2023-12-14T13:05:31;28.08;;;10.13;;
23181;SDS011;11759;51.282;6.642;2023-12-14T13:07:57;27.48;;;10.00;;
23181;SDS011;11759;51.282;6.642;2023-12-14T13:10:25;24.73;;;9.98;;
23181;SDS011;11759;51.282;6.642;2023-12-14T13:12:58;26.38;;;10.55;;
23181;SDS011;11759;51.282;6.642;2023-12-14T13:15:25;22.65;;;9.20;;
23181;SDS011;11759;51.282;6.642;2023-12-14T13:17:52;26.27;;;9.95;;
23181;SDS011;11759;51.282;6.642;2023-12-14T13:20:19;23.15;;;9.80;;
23181;SDS011;11759;51.282;6.642;2023-12-14T13:22:46;22.40;;;9.45;;
23181;SDS011;11759;51.282;6.642;2023-12-14T13:25:12;23.15;;;9.93;;
23181;SDS011;11759;51.282;6.642;2023-12-14T13:27:40;23.67;;;9.75;;
23181;SDS011;11759;51.282;6.642;2023-12-14T13:30:07;27.92;;;10.65;;
23181;SDS011;11759;51.282;6.642;2023-12-14T13:32:34;20.17;;;8.93;;
23181;SDS011;11759;51.282;6.642;2023-12-14T13:35:02;24.23;;;9.73;;
23181;SDS011;11759;51.282;6.642;2023-12-14T13:37:29;22.13;;;9.80;;
23181;SDS011;11759;51.282;6.642;2023-12-14T13:39:56;18.30;;;8.40;;
23181;SDS011;11759;51.282;6.642;2023-12-14T13:42:22;24.23;;;10.20;;
23181;SDS011;11759;51.282;6.642;2023-12-14T13:44:49;19.10;;;8.68;;
23181;SDS011;11759;51.282;6.642;2023-12-14T13:47:16;20.10;;;8.88;;
23181;SDS011;11759;51.282;6.642;2023-12-14T13:49:43;23.35;;;8.88;;
23181;SDS011;11759;51.282;6.642;2023-12-14T13:52:09;24.70;;;9.73;;
23181;SDS011;11759;51.282;6.642;2023-12-14T13:54:36;20.58;;;9.45;;
23181;SDS011;11759;51.282;6.642;2023-12-14T13:57:03;22.40;;;9.77;;
23181;SDS011;11759;51.282;6.642;2023-12-14T13:59:30;19.88;;;9.30;;
23181;SDS011;11759;51.282;6.642;2023-12-14T14:01:56;23.55;;;9.82;;
23181;SDS011;11759;51.282;6.642;2023-12-14T14:04:23;21.52;;;10.50;;
23181;SDS011;11759;51.282;6.642;2023-12-14T14:06:52;21.40;;;9.73;;
23181;SDS011;11759;51.282;6.642;2023-12-14T14:09:19;20.40;;;9.68;;
23181;SDS011;11759;51.282;6.642;2023-12-14T14:11:46;19.52;;;9.23;;
23181;SDS011;11759;51.282;6.642;2023-12-14T14:14:15;20.15;;;10.20;;
23181;SDS011;11759;51.282;6.642;2023-12-14T14:16:42;20.25;;;10.07;;
23181;SDS011;11759;51.282;6.642;2023-12-14T14:19:08;23.48;;;11.35;;
23181;SDS011;11759;51.282;6.642;2023-12-14T14:21:35;22.67;;;10.10;;
23181;SDS011;11759;51.282;6.642;2023-12-14T14:24:01;21.73;;;10.40;;
23181;SDS011;11759;51.282;6.642;2023-12-14T14:26:28;21.70;;;10.07;;
23181;SDS011;11759;51.282;6.642;2023-12-14T14:28:55;23.48;;;10.52;;